Time;durP1;ratioP1;P1;durP2;ratioP2;P2;SDS_P1;SDS_P2;PMS_P1;PMS_P2;Temp;Humidity;BMP_temperature;BMP_pressure;BME280_temperature;BME280_humidity;BME280_pressure;Samples;Min_cycle;Max_cycle;Signal;HPM_P1;HPM_P2
2021/11/17 02:26:27;;;;;;;14.48;5.82;;;6.90;92.70;;;;;;5048330;28;20041;-80
2021/11/17 02:29:13;;;;;;;15.77;6.22;;;6.90;92.70;;;;;;5034347;28;20103;-79
2021/11/17 02:31:46;;;;;;;16.52;6.65;;;6.90;92.70;;;;;;5045136;28;20053;-79
2021/11/17 02:34:55;;;;;;;19.98;8.20;;;6.90;92.70;;;;;;5016600;28;20080;-79
2021/11/17 02:37:47;;;;;;;17.88;7.15;;;6.90;92.70;;;;;;5019983;28;20048;-80
2021/11/17 02:40:17;;;;;;;18.15;7.50;;;6.90;92.60;;;;;;5032503;28;20044;-79
2021/11/17 02:42:48;;;;;;;19.15;7.63;;;6.90;92.70;;;;;;5032706;28;20092;-79
2021/11/17 02:45:44;;;;;;;21.92;7.88;;;6.90;92.70;;;;;;5047258;28;20037;-80
2021/11/17 02:48:56;;;;;;;18.30;7.72;;;6.90;92.70;;;;;;5031180;28;20139;-79
2021/11/17 02:51:38;;;;;;;15.43;6.15;;;7.00;92.70;;;;;;5027317;28;20128;-79
2021/11/17 02:54:47;;;;;;;17.52;6.97;;;7.00;92.70;;;;;;5047346;28;20755;-79
2021/11/17 02:57:53;;;;;;;17.40;6.95;;;7.00;92.70;;;;;;5051738;28;20049;-79
2021/11/17 03:00:30;;;;;;;20.38;7.93;;;7.00;93.00;;;;;;5044484;28;20576;-79
2021/11/17 03:03:03;;;;;;;20.90;8.18;;;7.00;92.70;;;;;;5012503;28;20460;-79
2021/11/17 03:05:52;;;;;;;17.95;8.10;;;7.00;92.70;;;;;;5048250;28;20043;-79
2021/11/17 03:08:34;;;;;;;16.50;7.53;;;7.00;92.70;;;;;;5045022;28;20052;-79
2021/11/17 03:11:19;;;;;;;18.05;6.72;;;6.90;92.70;;;;;;5032318;28;20048;-79
2021/11/17 03:13:56;;;;;;;19.45;9.13;;;7.00;92.70;;;;;;5042559;28;20052;-79
2021/11/17 03:16:52;;;;;;;13.48;5.78;;;7.00;92.70;;;;;;5045167;28;20139;-79
2021/11/17 03:19:51;;;;;;;17.38;6.47;;;7.10;92.70;;;;;;5045382;28;20040;-80
2021/11/17 03:22:36;;;;;;;17.98;6.65;;;7.00;92.70;;;;;;5012359;28;20038;-79
2021/11/17 03:25:09;;;;;;;15.70;6.68;;;7.00;92.70;;;;;;5032890;28;20037;-80
2021/11/17 03:28:01;;;;;;;13.82;5.63;;;7.00;92.70;;;;;;5046783;28;20124;-79
2021/11/17 03:30:52;;;;;;;14.65;7.05;;;7.00;92.70;;;;;;5020905;28;20045;-80
2021/11/17 03:33:44;;;;;;;14.13;5.53;;;7.10;93.00;;;;;;5015184;28;20059;-79
2021/11/17 03:36:21;;;;;;;12.32;5.78;;;7.10;92.70;;;;;;5041966;28;20140;-79
2021/11/17 03:39:07;;;;;;;15.68;7.32;;;7.10;92.70;;;;;;5024947;28;20041;-79
2021/11/17 03:41:52;;;;;;;14.13;5.90;;;7.10;92.70;;;;;;5024933;28;20386;-79
2021/11/17 03:44:39;;;;;;;17.40;5.78;;;7.10;92.70;;;;;;5022465;28;20476;-79
2021/11/17 03:47:21;;;;;;;16.10;5.93;;;7.10;92.70;;;;;;5038731;28;20037;-79
2021/11/17 03:50:00;;;;;;;13.47;5.40;;;7.10;92.70;;;;;;5023993;28;20036;-79
2021/11/17 03:52:54;;;;;;;15.45;5.38;;;7.10;92.70;;;;;;5037691;28;20497;-79
2021/11/17 03:55:26;;;;;;;13.18;4.93;;;7.10;92.70;;;;;;5011250;28;20055;-79
2021/11/17 03:58:17;;;;;;;;;;;7.10;92.70;;;;;;5043503;28;20168;-79
2021/11/17 04:00:59;;;;;;;9.90;5.15;;;7.10;92.70;;;;;;5023071;28;19925;-79
2021/11/17 04:03:47;;;;;;;;;;;7.10;92.80;;;;;;5021279;28;20053;-79
2021/11/17 04:06:32;;;;;;;11.40;4.20;;;7.10;92.80;;;;;;5041295;28;20419;-78
2021/11/17 04:09:25;;;;;;;12.48;4.90;;;7.10;92.80;;;;;;5033153;28;20131;-78
2021/11/17 04:12:13;;;;;;;18.63;7.40;;;7.10;92.70;;;;;;5031425;28;20041;-78
2021/11/17 04:14:52;;;;;;;15.40;6.13;;;7.10;92.70;;;;;;5018780;28;20048;-78
2021/11/17 04:17:40;;;;;;;14.88;5.72;;;7.10;92.70;;;;;;5043277;28;20049;-78
2021/11/17 04:20:13;;;;;;;14.43;7.07;;;7.10;92.70;;;;;;5032590;28;20107;-79
2021/11/17 04:22:52;;;;;;;16.80;7.15;;;7.10;92.70;;;;;;5040510;28;20075;-81
2021/11/17 04:25:37;;;;;;;14.48;6.55;;;7.20;92.70;;;;;;5014711;28;20486;-81
2021/11/17 04:28:24;;;;;;;13.38;4.95;;;7.10;92.70;;;;;;5040225;28;20521;-81
2021/11/17 04:30:54;;;;;;;13.82;6.03;;;7.20;92.70;;;;;;5011863;28;20045;-81
2021/11/17 04:33:30;;;;;;;14.07;5.88;;;7.20;92.70;;;;;;5036926;28;20041;-78
2021/11/17 04:36:21;;;;;;;14.95;6.60;;;7.20;92.70;;;;;;5035618;28;20048;-79
2021/11/17 04:39:20;;;;;;;10.18;4.32;;;7.20;92.70;;;;;;5050770;28;20060;-78
2021/11/17 04:42:12;;;;;;;14.18;5.28;;;7.20;92.70;;;;;;5031193;28;20057;-78
2021/11/17 04:44:48;;;;;;;14.80;5.60;;;7.20;92.70;;;;;;5029918;28;20048;-78
2021/11/17 04:47:39;;;;;;;16.42;6.25;;;7.20;92.70;;;;;;5039954;28;20048;-78
2021/11/17 04:50:16;;;;;;;14.25;5.72;;;7.20;92.60;;;;;;5044346;28;20045;-78
2021/11/17 04:53:07;;;;;;;12.50;5.47;;;7.20;92.70;;;;;;5023693;28;20049;-78
2021/11/17 04:56:04;;;;;;;14.15;5.85;;;7.20;92.70;;;;;;5035329;28;20493;-79
2021/11/17 04:58:53;;;;;;;18.00;7.93;;;7.20;92.70;;;;;;5057749;28;20045;-79
2021/11/17 05:01:32;;;;;;;16.48;6.70;;;7.10;92.70;;;;;;5046816;28;20069;-79
2021/11/17 05:04:21;;;;;;;14.20;6.68;;;7.10;92.60;;;;;;5016755;28;20048;-79
2021/11/17 05:07:03;;;;;;;16.17;6.35;;;7.10;92.70;;;;;;5036099;28;20113;-78
2021/11/17 05:09:42;;;;;;;19.48;6.05;;;7.10;92.70;;;;;;5035362;28;20049;-78
2021/11/17 05:12:18;;;;;;;16.17;6.60;;;7.10;92.70;;;;;;5038942;28;20041;-79
2021/11/17 05:14:52;;;;;;;15.57;5.63;;;7.10;92.70;;;;;;5035754;28;20053;-79
2021/11/17 05:17:47;;;;;;;16.10;5.35;;;7.10;92.70;;;;;;5016371;28;20055;-78
2021/11/17 05:20:27;;;;;;;14.88;6.90;;;7.10;92.70;;;;;;5035753;28;20492;-78
2021/11/17 05:23:06;;;;;;;17.38;6.47;;;7.10;92.70;;;;;;5020227;28;20075;-78
2021/11/17 05:26:04;;;;;;;13.68;5.20;;;7.10;92.80;;;;;;5051078;28;20049;-78
2021/11/17 05:28:51;;;;;;;10.68;4.47;;;7.00;92.80;;;;;;5024627;28;20053;-78
2021/11/17 05:31:27;;;;;;;11.60;5.13;;;7.00;92.90;;;;;;5036565;28;20044;-79
2021/11/17 05:34:09;;;;;;;12.30;4.85;;;7.00;92.90;;;;;;5035164;28;20382;-79
2021/11/17 05:36:55;;;;;;;10.05;4.97;;;7.00;92.90;;;;;;5037761;28;20126;-78
2021/11/17 05:39:31;;;;;;;7.63;2.88;;;7.00;92.90;;;;;;5018808;28;20052;-78
2021/11/17 05:42:17;;;;;;;9.68;3.78;;;7.00;92.90;;;;;;5031421;28;20041;-78
2021/11/17 05:44:56;;;;;;;9.77;3.50;;;7.00;92.90;;;;;;5042101;28;20096;-79
2021/11/17 05:47:32;;;;;;;10.10;3.38;;;7.00;92.90;;;;;;5022504;28;20438;-78
2021/11/17 05:50:35;;;;;;;9.43;3.40;;;7.00;92.90;;;;;;5024186;28;20045;-78
2021/11/17 05:53:04;;;;;;;11.27;3.50;;;7.00;93.10;;;;;;5007883;28;20057;-79
2021/11/17 05:56:07;;;;;;;11.27;4.30;;;7.00;92.90;;;;;;5023460;28;20049;-78
2021/11/17 05:58:46;;;;;;;11.68;3.97;;;7.10;92.90;;;;;;5041288;28;20045;-79
2021/11/17 06:01:50;;;;;;;10.02;3.53;;;7.10;92.90;;;;;;5046870;28;20507;-79
2021/11/17 06:04:18;;;;;;;11.38;4.15;;;7.10;92.90;;;;;;5015620;28;20060;-79
2021/11/17 06:06:44;;;;;;;8.10;3.33;;;7.10;92.90;;;;;;5029285;28;20057;-79
2021/11/17 06:09:11;;;;;;;12.45;4.75;;;7.10;92.90;;;;;;5028427;28;20420;-79
2021/11/17 06:11:46;;;;;;;10.65;4.10;;;7.20;92.90;;;;;;5037903;28;20082;-79
2021/11/17 06:14:27;;;;;;;12.65;5.18;;;7.20;92.80;;;;;;5021064;28;20042;-79
2021/11/17 06:17:03;;;;;;;11.55;4.15;;;7.20;92.80;;;;;;5036497;28;20048;-79
2021/11/17 06:19:34;;;;;;;13.90;5.63;;;7.30;92.80;;;;;;5024535;28;20049;-79
2021/11/17 06:22:03;;;;;;;11.77;4.05;;;7.30;92.80;;;;;;5049107;28;20053;-79
2021/11/17 06:24:37;;;;;;;15.15;4.97;;;7.30;92.80;;;;;;5024468;28;20076;-79
2021/11/17 06:27:07;;;;;;;11.63;4.50;;;7.30;92.80;;;;;;5037659;28;20079;-79
2021/11/17 06:29:41;;;;;;;12.70;4.97;;;7.40;92.80;;;;;;5040616;28;20099;-79
2021/11/17 06:32:10;;;;;;;11.20;4.35;;;7.40;92.80;;;;;;5033876;28;20124;-79
2021/11/17 06:34:41;;;;;;;14.15;5.75;;;7.40;92.80;;;;;;5025470;28;20053;-79
2021/11/17 06:37:19;;;;;;;15.02;5.45;;;7.40;92.70;;;;;;5046688;28;20048;-79
2021/11/17 06:39:49;;;;;;;17.50;6.13;;;7.40;92.70;;;;;;5032070;28;20041;-79
2021/11/17 06:42:30;;;;;;;15.65;6.07;;;7.40;92.70;;;;;;5049149;28;20048;-79
2021/11/17 06:44:58;;;;;;;16.35;5.60;;;7.50;92.70;;;;;;5050140;28;20039;-79
2021/11/17 06:47:25;;;;;;;12.05;5.50;;;7.50;92.70;;;;;;5032980;28;20065;-80
2021/11/17 06:49:53;;;;;;;12.63;5.22;;;7.50;92.70;;;;;;5032984;28;20056;-79
2021/11/17 06:52:22;;;;;;;13.00;4.72;;;7.50;92.70;;;;;;5033785;28;20084;-79
2021/11/17 06:54:49;;;;;;;10.63;5.25;;;7.50;92.70;;;;;;5049380;28;20130;-79
2021/11/17 06:57:18;;;;;;;11.68;4.63;;;7.50;92.70;;;;;;5047639;28;20044;-80
2021/11/17 06:59:46;;;;;;;15.85;5.97;;;7.60;92.70;;;;;;5050531;28;20045;-79
2021/11/17 07:02:14;;;;;;;12.43;4.65;;;7.60;92.70;;;;;;5031276;28;20052;-79
2021/11/17 07:04:42;;;;;;;19.05;8.15;;;7.50;92.70;;;;;;5021447;28;20500;-79
2021/11/17 07:07:15;;;;;;;14.07;5.22;;;7.50;92.60;;;;;;5033771;28;20046;-79
2021/11/17 07:09:44;;;;;;;17.33;5.95;;;7.50;92.60;;;;;;5034836;28;20045;-79
2021/11/17 07:12:13;;;;;;;17.85;6.55;;;7.50;92.70;;;;;;5047402;28;20557;-79
2021/11/17 07:14:40;;;;;;;12.88;5.32;;;7.50;92.70;;;;;;5032860;28;20094;-79
2021/11/17 07:17:07;;;;;;;12.07;4.53;;;7.60;92.70;;;;;;5024987;28;20053;-79
2021/11/17 07:19:34;;;;;;;15.32;5.32;;;7.60;92.70;;;;;;5038261;28;20069;-79
2021/11/17 07:22:06;;;;;;;14.32;5.68;;;7.60;92.70;;;;;;5035538;28;20075;-81
2021/11/17 07:24:35;;;;;;;14.07;5.70;;;7.60;92.70;;;;;;5050236;28;20383;-80
2021/11/17 07:27:03;;;;;;;17.92;5.97;;;7.60;92.70;;;;;;5029304;28;20040;-78
2021/11/17 07:29:30;;;;;;;12.40;5.00;;;7.60;92.70;;;;;;5032130;28;20102;-79
2021/11/17 07:31:57;;;;;;;13.27;4.95;;;7.60;92.70;;;;;;5021049;28;20032;-80
2021/11/17 07:34:25;;;;;;;12.90;4.63;;;7.60;92.70;;;;;;5021705;28;20041;-79
2021/11/17 07:36:52;;;;;;;10.45;5.00;;;7.70;92.70;;;;;;5011420;28;20134;-79
2021/11/17 07:39:19;;;;;;;12.60;5.95;;;7.60;92.70;;;;;;5032016;28;20382;-80
2021/11/17 07:41:49;;;;;;;16.98;6.95;;;7.70;92.70;;;;;;5018208;28;20117;-79
2021/11/17 07:44:18;;;;;;;15.48;6.07;;;7.70;92.70;;;;;;5032299;28;20053;-79
2021/11/17 07:46:47;;;;;;;14.25;6.57;;;7.70;92.70;;;;;;5044063;28;20052;-79
2021/11/17 07:49:16;;;;;;;15.65;5.80;;;7.70;92.70;;;;;;5048196;28;20124;-78
2021/11/17 07:51:44;;;;;;;16.63;5.85;;;7.70;92.70;;;;;;5044433;28;20052;-78
2021/11/17 07:54:11;;;;;;;13.85;4.90;;;7.70;92.60;;;;;;4999309;28;20041;-78
2021/11/17 07:56:41;;;;;;;10.43;5.15;;;7.70;92.70;;;;;;5020409;28;20587;-79
2021/11/17 07:59:13;;;;;;;17.88;6.22;;;7.80;92.70;;;;;;5032147;28;20053;-78
2021/11/17 08:01:45;;;;;;;11.05;5.13;;;7.80;92.70;;;;;;5047818;28;20057;-78
2021/11/17 08:04:14;;;;;;;15.60;6.43;;;7.80;92.70;;;;;;5046750;28;20092;-79
2021/11/17 08:06:43;;;;;;;20.20;8.13;;;7.80;92.70;;;;;;5014298;28;20072;-78
2021/11/17 08:09:11;;;;;;;23.65;10.30;;;7.80;92.60;;;;;;5028594;28;20040;-78
2021/11/17 08:11:40;;;;;;;18.70;8.32;;;7.80;92.60;;;;;;5048667;28;20044;-79
2021/11/17 08:14:08;;;;;;;18.33;8.00;;;7.80;92.60;;;;;;5031857;28;20041;-78
2021/11/17 08:16:36;;;;;;;18.70;7.85;;;7.80;92.70;;;;;;5034945;28;20142;-78
2021/11/17 08:19:03;;;;;;;20.42;7.55;;;7.90;92.70;;;;;;5032842;28;20140;-79
2021/11/17 08:21:31;;;;;;;17.77;8.18;;;7.90;92.60;;;;;;5028568;28;20064;-78
2021/11/17 08:23:58;;;;;;;29.80;10.15;;;8.00;92.60;;;;;;5050871;28;20057;-79
2021/11/17 08:26:25;;;;;;;24.38;9.70;;;8.00;92.60;;;;;;5030595;28;20037;-78
2021/11/17 08:28:52;;;;;;;31.92;10.65;;;8.00;92.60;;;;;;5031189;28;20094;-78
2021/11/17 08:31:24;;;;;;;30.52;11.93;;;8.00;92.80;;;;;;5045218;28;20041;-78
2021/11/17 08:33:52;;;;;;;29.45;11.45;;;8.10;92.60;;;;;;5034465;28;20053;-78
2021/11/17 08:36:20;;;;;;;33.28;13.40;;;8.10;92.60;;;;;;5014700;28;20252;-78
2021/11/17 08:38:53;;;;;;;33.70;11.95;;;8.00;92.60;;;;;;5014426;28;20140;-79
2021/11/17 08:41:23;;;;;;;32.33;11.70;;;8.00;92.60;;;;;;5037026;28;20049;-79
2021/11/17 08:43:51;;;;;;;35.28;14.15;;;8.10;92.60;;;;;;5047048;28;20080;-79
2021/11/17 08:46:20;;;;;;;28.75;12.18;;;8.10;92.60;;;;;;5050664;28;20065;-79
2021/11/17 08:48:47;;;;;;;32.92;13.30;;;8.10;92.60;;;;;;5030157;28;20045;-79
2021/11/17 08:51:18;;;;;;;27.10;10.80;;;8.10;92.60;;;;;;5038633;28;20504;-79
2021/11/17 08:53:47;;;;;;;28.83;13.00;;;8.20;92.60;;;;;;5046544;28;20060;-79
2021/11/17 08:56:15;;;;;;;28.13;10.82;;;8.20;92.60;;;;;;5050139;28;20138;-79
2021/11/17 08:58:43;;;;;;;35.67;15.32;;;8.20;92.60;;;;;;5030113;28;20060;-79
2021/11/17 09:01:10;;;;;;;32.20;13.18;;;8.30;92.60;;;;;;5030876;28;20049;-79
2021/11/17 09:03:39;;;;;;;31.85;13.40;;;8.30;92.60;;;;;;5024030;28;20172;-79
2021/11/17 09:06:10;;;;;;;34.80;13.80;;;8.30;92.60;;;;;;5050496;28;20083;-79
2021/11/17 09:08:37;;;;;;;36.17;11.70;;;8.40;92.60;;;;;;5047734;28;20041;-79
2021/11/17 09:11:09;;;;;;;28.10;11.68;;;8.40;92.60;;;;;;5045812;28;20049;-80
2021/11/17 09:13:38;;;;;;;33.28;12.70;;;8.40;92.60;;;;;;5046257;28;20060;-79
2021/11/17 09:16:06;;;;;;;37.08;14.10;;;8.40;92.60;;;;;;5030795;28;20041;-80
2021/11/17 09:18:35;;;;;;;43.88;15.23;;;8.40;92.60;;;;;;5030260;28;20044;-79
2021/11/17 09:21:06;;;;;;;38.17;15.48;;;8.40;92.60;;;;;;5031176;28;20052;-79
2021/11/17 09:23:33;;;;;;;37.30;13.30;;;8.30;92.70;;;;;;5053594;28;20186;-80
2021/11/17 09:26:01;;;;;;;44.63;15.75;;;8.20;93.00;;;;;;5048118;28;20439;-79
2021/11/17 09:28:30;;;;;;;42.70;15.25;;;8.20;93.00;;;;;;5020224;28;20041;-80
2021/11/17 09:30:58;;;;;;;43.50;16.02;;;8.20;92.90;;;;;;5033108;28;20037;-80
2021/11/17 09:33:32;;;;;;;41.85;16.13;;;8.20;92.90;;;;;;5032473;28;20712;-79
2021/11/17 09:35:59;;;;;;;38.10;15.02;;;8.20;93.00;;;;;;5034521;28;20069;-79
2021/11/17 09:38:27;;;;;;;38.92;14.82;;;8.20;93.00;;;;;;5034254;28;20405;-80
2021/11/17 09:41:00;;;;;;;36.47;14.98;;;8.20;93.00;;;;;;5050647;28;20037;-78
2021/11/17 09:43:34;;;;;;;36.05;14.07;;;8.20;93.10;;;;;;5046770;28;20041;-77
2021/11/17 09:46:02;;;;;;;30.80;13.95;;;8.20;93.10;;;;;;5038429;28;20045;-77
2021/11/17 09:48:35;;;;;;;37.95;15.18;;;8.30;93.10;;;;;;5031772;28;20053;-76
2021/11/17 09:51:13;;;;;;;40.60;16.75;;;8.30;93.10;;;;;;5047448;28;20071;-78
2021/11/17 09:53:43;;;;;;;34.75;14.63;;;8.30;93.10;;;;;;5050106;28;20048;-78
2021/11/17 09:56:25;;;;;;;32.55;13.02;;;8.30;93.10;;;;;;5050318;28;20045;-78
2021/11/17 09:58:56;;;;;;;32.83;12.93;;;8.30;93.20;;;;;;5050817;28;20134;-78
2021/11/17 10:01:39;;;;;;;37.65;13.88;;;8.30;93.20;;;;;;5050168;28;20045;-78
2021/11/17 10:04:21;;;;;;;37.95;14.55;;;8.30;93.20;;;;;;5049136;28;20600;-78
2021/11/17 10:15:13;;;;;;;29.98;11.75;;;8.40;93.30;;;;;;5051924;28;20048;-77
2021/11/17 10:17:57;;;;;;;32.90;12.32;;;8.40;93.60;;;;;;5050052;28;20432;-77
2021/11/17 10:20:45;;;;;;;37.70;14.20;;;8.50;93.30;;;;;;5052596;28;20053;-77
2021/11/17 10:23:22;;;;;;;34.65;14.32;;;8.40;93.30;;;;;;5050723;28;20442;-78
2021/11/17 10:26:04;;;;;;;34.63;13.30;;;8.40;93.40;;;;;;5031620;28;20045;-77
2021/11/17 10:28:47;;;;;;;38.27;14.87;;;8.40;93.40;;;;;;5039862;28;20072;-77
2021/11/17 10:31:49;;;;;;;44.45;16.77;;;8.50;93.50;;;;;;5036738;28;20048;-77
2021/11/17 10:34:31;;;;;;;46.42;16.98;;;8.50;93.50;;;;;;5047658;28;20096;-78
2021/11/17 10:37:08;;;;;;;39.90;16.00;;;8.50;93.50;;;;;;5047501;28;20056;-77
2021/11/17 10:39:44;;;;;;;38.78;15.80;;;8.50;93.50;;;;;;5033222;28;20041;-77
2021/11/17 10:42:20;;;;;;;36.92;14.75;;;8.60;93.60;;;;;;5033211;28;20090;-77
2021/11/17 10:45:02;;;;;;;34.05;13.88;;;8.60;93.60;;;;;;5051286;28;20033;-77
2021/11/17 10:47:47;;;;;;;36.08;15.18;;;8.70;93.60;;;;;;5049905;28;20041;-77
2021/11/17 10:50:23;;;;;;;28.48;11.07;;;8.70;93.60;;;;;;5049704;28;20510;-78
2021/11/17 10:53:07;;;;;;;32.38;12.73;;;8.80;93.60;;;;;;5047550;28;20140;-77
2021/11/17 10:56:06;;;;;;;33.45;13.88;;;8.80;93.50;;;;;;5045938;28;20456;-77
2021/11/17 10:58:37;;;;;;;40.90;16.25;;;8.90;93.60;;;;;;5051394;28;20049;-77
2021/11/17 11:01:14;;;;;;;42.47;17.25;;;8.90;93.60;;;;;;5033389;28;20548;-77
2021/11/17 11:03:49;;;;;;;40.45;16.05;;;8.90;93.60;;;;;;5049009;28;20053;-77
2021/11/17 11:06:37;;;;;;;37.63;14.68;;;9.00;93.90;;;;;;5050623;28;20033;-77
2021/11/17 11:09:09;;;;;;;34.83;13.82;;;9.00;93.60;;;;;;5045433;28;20095;-77
2021/11/17 11:11:40;;;;;;;;;;;9.10;93.60;;;;;;5032992;28;20106;-77
2021/11/17 11:14:17;;;;;;;31.17;11.40;;;9.10;93.60;;;;;;5048757;28;19963;-77
2021/11/17 11:17:12;;;;;;;32.20;12.93;;;9.20;93.60;;;;;;5036840;28;20102;-77
2021/11/17 11:19:40;;;;;;;34.95;13.43;;;9.20;93.60;;;;;;5052449;28;20057;-78
2021/11/17 11:22:16;;;;;;;36.78;14.93;;;9.30;93.60;;;;;;5032775;28;20721;-78
2021/11/17 11:24:48;;;;;;;43.22;16.40;;;9.30;93.60;;;;;;5048423;28;20045;-77
2021/11/17 11:27:26;;;;;;;36.38;13.15;;;9.40;93.60;;;;;;5047729;28;20033;-77
2021/11/17 11:30:02;;;;;;;42.67;16.38;;;9.40;93.60;;;;;;5049518;28;20497;-75
2021/11/17 11:32:29;;;;;;;36.60;13.65;;;9.50;93.60;;;;;;5045543;28;20440;-76
2021/11/17 11:34:59;;;;;;;31.23;13.32;;;9.60;93.60;;;;;;5049908;28;20576;-77
2021/11/17 11:37:25;;;;;;;33.50;13.50;;;9.60;93.60;;;;;;5049548;28;20106;-76
2021/11/17 11:39:57;;;;;;;30.25;11.95;;;9.70;93.60;;;;;;5048739;28;20049;-76
2021/11/17 11:42:33;;;;;;;31.45;11.95;;;9.80;93.60;;;;;;5048941;28;20045;-77
2021/11/17 11:45:26;;;;;;;31.38;12.95;;;9.80;93.50;;;;;;5047787;28;20049;-78
2021/11/17 11:48:10;;;;;;;33.42;13.70;;;9.80;93.50;;;;;;5046812;28;20049;-77
2021/11/17 11:50:37;;;;;;;28.95;12.65;;;9.80;93.50;;;;;;5046798;28;20044;-77
2021/11/17 11:53:09;;;;;;;38.10;15.18;;;9.80;93.60;;;;;;5052008;28;20068;-77
2021/11/17 11:55:54;;;;;;;34.60;14.77;;;9.90;93.60;;;;;;5048449;28;20136;-77
2021/11/17 11:58:21;;;;;;;33.67;14.07;;;10.00;93.60;;;;;;5047135;28;20107;-78
2021/11/17 12:00:59;;;;;;;25.23;11.77;;;10.00;93.60;;;;;;5048656;28;20500;-79
2021/11/17 12:03:30;;;;;;;26.98;11.85;;;10.00;93.60;;;;;;5047956;28;20139;-77
2021/11/17 12:06:01;;;;;;;35.97;15.63;;;10.00;93.60;;;;;;5049818;28;20044;-78
2021/11/17 12:08:33;;;;;;;37.53;16.45;;;10.10;93.70;;;;;;5049502;28;20063;-78
2021/11/17 12:11:07;;;;;;;37.75;15.38;;;10.20;93.70;;;;;;5050303;28;20064;-78
2021/11/17 12:13:38;;;;;;;39.10;18.48;;;10.20;93.70;;;;;;5053758;28;20116;-77
2021/11/17 12:16:19;;;;;;;38.08;14.63;;;10.30;93.70;;;;;;5029706;28;20362;-78
2021/11/17 12:19:00;;;;;;;41.25;16.45;;;10.30;93.60;;;;;;5037482;28;20045;-78
2021/11/17 12:21:32;;;;;;;37.33;15.85;;;10.30;93.60;;;;;;5032548;28;20052;-77
2021/11/17 12:24:11;;;;;;;32.83;15.18;;;10.40;93.70;;;;;;5047626;28;20039;-79
2021/11/17 12:26:45;;;;;;;29.88;14.13;;;10.50;93.70;;;;;;5033270;28;20041;-78
2021/11/17 12:29:20;;;;;;;33.22;14.45;;;10.60;93.70;;;;;;5047365;28;20049;-77
2021/11/17 12:32:04;;;;;;;32.60;15.30;;;10.60;93.60;;;;;;5048145;28;20068;-78
2021/11/17 12:34:46;;;;;;;28.88;13.07;;;10.60;93.60;;;;;;5029422;28;20160;-77
2021/11/17 12:37:22;;;;;;;32.17;13.50;;;10.60;93.60;;;;;;5041687;28;20507;-77
2021/11/17 12:39:49;;;;;;;30.65;11.93;;;10.70;93.70;;;;;;5047507;28;20037;-79
2021/11/17 12:42:28;;;;;;;25.30;11.88;;;10.70;93.70;;;;;;5051341;28;20075;-79
2021/11/17 12:44:56;;;;;;;22.40;11.05;;;10.80;93.70;;;;;;5048025;28;20481;-79
2021/11/17 12:47:41;;;;;;;24.20;10.23;;;10.80;93.60;;;;;;5030318;28;20079;-79
2021/11/17 12:50:17;;;;;;;27.65;12.15;;;10.80;93.60;;;;;;5047628;28;20041;-80
2021/11/17 12:53:08;;;;;;;24.92;10.85;;;10.80;93.60;;;;;;5047563;28;20048;-80
2021/11/17 12:55:43;;;;;;;33.10;13.20;;;10.80;93.60;;;;;;5033358;28;20136;-80
2021/11/17 12:58:32;;;;;;;28.30;12.98;;;10.80;93.70;;;;;;5047036;28;20049;-77
2021/11/17 13:01:18;;;;;;;29.35;12.57;;;10.80;93.70;;;;;;5030692;28;20056;-77
2021/11/17 13:03:48;;;;;;;30.48;13.15;;;10.80;93.80;;;;;;5047873;28;20493;-77
2021/11/17 13:06:27;;;;;;;27.95;12.65;;;10.80;93.80;;;;;;5050508;28;20037;-78
2021/11/17 13:09:15;;;;;;;25.48;12.38;;;10.70;93.80;;;;;;5045534;28;20098;-77
2021/11/17 13:12:05;;;;;;;22.48;10.85;;;10.70;93.80;;;;;;5032530;28;20045;-78
2021/11/17 13:14:32;;;;;;;26.77;12.20;;;10.70;93.90;;;;;;5039463;28;20135;-78
2021/11/17 13:17:21;;;;;;;22.52;11.45;;;10.70;93.90;;;;;;5050478;28;20128;-79
2021/11/17 13:19:59;;;;;;;22.75;10.73;;;10.70;93.90;;;;;;5048480;28;20437;-79
2021/11/17 13:22:35;;;;;;;20.77;9.68;;;10.70;93.90;;;;;;5049822;28;20063;-78
2021/11/17 13:25:26;;;;;;;17.60;9.10;;;10.80;93.90;;;;;;5048656;28;20132;-77
2021/11/17 13:27:57;;;;;;;16.27;7.75;;;10.80;93.80;;;;;;5041794;28;20045;-77
2021/11/17 13:30:30;;;;;;;15.82;7.40;;;10.80;94.10;;;;;;5045458;28;20072;-78
2021/11/17 13:33:15;;;;;;;16.83;6.85;;;10.80;93.90;;;;;;5046016;28;20094;-78
2021/11/17 13:35:43;;;;;;;15.68;7.68;;;10.80;93.90;;;;;;5051032;28;20513;-78
2021/11/17 13:38:31;;;;;;;12.50;6.03;;;10.90;94.00;;;;;;5034425;28;20090;-79
2021/11/17 13:41:01;;;;;;;18.67;8.43;;;11.00;93.90;;;;;;5036398;28;20068;-77
2021/11/17 13:43:30;;;;;;;16.17;7.78;;;11.10;93.90;;;;;;5050587;28;20435;-78
2021/11/17 13:46:01;;;;;;;19.40;9.05;;;11.20;93.80;;;;;;5035861;28;20045;-77
2021/11/17 13:48:32;;;;;;;16.35;7.75;;;11.30;93.70;;;;;;5049546;28;20049;-79
2021/11/17 13:51:05;;;;;;;17.25;8.13;;;11.30;93.60;;;;;;5052337;28;20054;-77
2021/11/17 13:53:32;;;;;;;16.77;7.13;;;11.40;93.60;;;;;;5053958;28;20041;-77
2021/11/17 13:56:09;;;;;;;14.27;6.53;;;11.50;93.60;;;;;;5055417;28;20120;-78
2021/11/17 13:58:37;;;;;;;13.10;5.95;;;11.60;93.60;;;;;;5057291;28;20064;-77
2021/11/17 14:01:05;;;;;;;11.40;4.90;;;11.70;93.50;;;;;;5023367;28;20067;-77
2021/11/17 14:03:34;;;;;;;9.00;4.70;;;11.80;93.40;;;;;;5037365;28;20110;-77
2021/11/17 14:06:06;;;;;;;12.70;5.53;;;11.80;93.40;;;;;;5034494;28;20082;-78
2021/11/17 14:08:33;;;;;;;18.15;6.75;;;11.80;93.40;;;;;;5033886;28;20060;-77
2021/11/17 14:11:01;;;;;;;15.60;6.45;;;11.90;93.30;;;;;;5050127;28;20037;-77
2021/11/17 14:13:29;;;;;;;12.88;5.25;;;11.90;93.20;;;;;;5050294;28;20037;-77
2021/11/17 14:15:56;;;;;;;14.07;4.15;;;11.90;93.20;;;;;;5048438;28;20052;-78
2021/11/17 14:18:24;;;;;;;9.38;3.55;;;11.90;93.30;;;;;;5053093;28;20056;-76
2021/11/17 14:20:51;;;;;;;10.80;2.90;;;11.90;93.10;;;;;;5054828;28;20110;-78
2021/11/17 14:23:18;;;;;;;7.03;2.28;;;11.80;92.70;;;;;;5036077;28;20041;-79
2021/11/17 14:25:46;;;;;;;8.68;1.77;;;11.70;92.60;;;;;;5037402;28;20076;-78
2021/11/17 14:28:27;;;;;;;6.65;1.45;;;11.70;92.70;;;;;;5017529;28;20132;-79
2021/11/17 14:30:55;;;;;;;3.95;1.20;;;11.70;92.50;;;;;;5054740;28;20154;-78
2021/11/17 14:33:31;;;;;;;7.85;2.08;;;11.60;92.60;;;;;;5050633;28;20087;-79
2021/11/17 14:36:04;;;;;;;7.05;1.42;;;11.60;92.50;;;;;;5032914;28;20048;-78
2021/11/17 14:38:33;;;;;;;5.47;1.00;;;11.60;92.40;;;;;;5048721;28;20041;-77
2021/11/17 14:41:00;;;;;;;5.05;1.30;;;11.50;92.40;;;;;;5050888;28;20061;-77
2021/11/17 14:43:27;;;;;;;4.60;1.10;;;11.50;92.40;;;;;;5066434;28;20049;-77
2021/11/17 14:45:54;;;;;;;5.65;1.00;;;11.50;92.40;;;;;;5049654;28;20053;-78
2021/11/17 14:48:22;;;;;;;7.53;1.00;;;11.40;92.50;;;;;;5053131;28;20087;-78
2021/11/17 14:50:50;;;;;;;4.68;0.68;;;11.40;92.50;;;;;;5035484;28;20072;-79
2021/11/17 14:53:36;;;;;;;4.38;0.85;;;11.40;92.50;;;;;;5050510;28;20041;-78
2021/11/17 14:56:03;;;;;;;5.07;1.02;;;11.40;92.50;;;;;;5028182;28;20045;-78
2021/11/17 14:58:30;;;;;;;6.47;0.80;;;11.30;92.50;;;;;;5032296;28;20049;-78
2021/11/17 15:01:02;;;;;;;5.28;0.70;;;11.20;92.50;;;;;;5037721;28;20051;-79
2021/11/17 15:03:29;;;;;;;4.75;0.68;;;11.10;92.50;;;;;;5052460;28;20079;-78
2021/11/17 15:05:57;;;;;;;2.30;0.50;;;11.00;92.50;;;;;;5033767;28;20041;-78
2021/11/17 15:08:23;;;;;;;1.88;0.50;;;10.90;92.60;;;;;;5016038;28;20385;-78
2021/11/17 15:10:50;;;;;;;3.30;0.60;;;10.90;92.60;;;;;;5050384;28;20036;-78
2021/11/17 15:13:18;;;;;;;1.85;0.38;;;10.80;92.60;;;;;;5033422;28;20432;-77
2021/11/17 15:15:47;;;;;;;1.92;0.50;;;10.70;92.60;;;;;;5032958;28;20076;-77
2021/11/17 15:18:21;;;;;;;2.00;0.38;;;10.60;92.60;;;;;;5045811;28;20628;-77
2021/11/17 15:20:49;;;;;;;2.08;0.52;;;10.50;92.70;;;;;;5045617;28;20052;-76
2021/11/17 15:23:17;;;;;;;2.60;0.73;;;10.50;92.70;;;;;;5049011;28;20113;-77
2021/11/17 15:25:45;;;;;;;2.33;0.40;;;10.40;92.70;;;;;;5032645;28;20049;-76
2021/11/17 15:28:22;;;;;;;1.70;0.40;;;10.30;92.70;;;;;;5029388;28;20064;-77
2021/11/17 15:31:03;;;;;;;1.98;0.35;;;10.30;92.80;;;;;;5050402;28;20485;-77
2021/11/17 15:33:32;;;;;;;1.15;0.28;;;10.20;92.80;;;;;;5047665;28;20036;-78
2021/11/17 15:35:59;;;;;;;0.65;0.15;;;10.10;92.80;;;;;;5038373;28;20140;-77
2021/11/17 15:38:27;;;;;;;1.15;0.20;;;10.00;92.90;;;;;;5031513;28;20091;-78
2021/11/17 15:40:59;;;;;;;1.02;0.20;;;9.90;92.90;;;;;;5045055;28;20686;-78
2021/11/17 15:43:28;;;;;;;1.40;0.20;;;9.80;93.00;;;;;;5047368;28;20389;-78
2021/11/17 15:45:56;;;;;;;0.38;0.13;;;9.70;93.10;;;;;;5046531;28;20132;-78
2021/11/17 15:48:24;;;;;;;0.73;0.20;;;9.60;93.10;;;;;;5028251;28;20036;-77
2021/11/17 15:51:03;;;;;;;1.50;0.30;;;9.60;93.20;;;;;;5044132;28;20064;-77
2021/11/17 15:53:30;;;;;;;2.50;0.57;;;9.50;93.20;;;;;;5031880;28;20136;-77
2021/11/17 15:55:57;;;;;;;2.40;0.52;;;9.40;93.20;;;;;;5020239;28;20044;-78
2021/11/17 15:58:25;;;;;;;1.90;0.30;;;9.40;93.20;;;;;;5017166;28;20041;-79
2021/11/17 16:00:53;;;;;;;3.15;0.35;;;9.30;93.30;;;;;;5033670;28;20079;-79